Terminal Aerodrome Forecast
Issued by NWS

Current Version | Previous Version | Text Only | Print | Product List | Glossary On
Versions: 1 2 3 4 5 6 7 8 9 10 11 12 13 14 15 16
000
FTUS43 KIND 192300
TAFHUF
TAF
KHUF 192325Z 2000/2024 20006KT P6SM BKN200
     FM201300 22011KT P6SM VCSH BKN040
     FM202300 22008KT P6SM BKN025=

USA.gov is the U.S. government's official web portal to all federal, state and local government web resources and services.